Time;durP1;ratioP1;P1;durP2;ratioP2;P2;SDS_P1;SDS_P2;PMS_P1;PMS_P2;Temp;Humidity;BMP_temperature;BMP_pressure;BME280_temperature;BME280_humidity;BME280_pressure;Samples;Min_cycle;Max_cycle;Signal;HPM_P1;HPM_P2
2022/11/23 00:01:16;;;;;;;44.60;22.08;;;5.30;99.90;;;;;;6240524;23;20008;-86
2022/11/23 00:03:44;;;;;;;53.40;23.67;;;5.30;99.90;;;;;;6239767;23;20008;-83
2022/11/23 00:06:10;;;;;;;47.25;22.30;;;5.30;99.90;;;;;;6240094;23;20000;-87
2022/11/23 00:08:36;;;;;;;53.55;23.80;;;5.30;99.90;;;;;;6266158;22;20000;-87
2022/11/23 00:11:01;;;;;;;44.95;21.90;;;5.30;99.90;;;;;;6243058;23;20004;-85
2022/11/23 00:13:27;;;;;;;49.88;23.65;;;5.40;99.90;;;;;;6243551;23;20008;-85
2022/11/23 00:15:53;;;;;;;57.22;23.77;;;5.40;99.90;;;;;;6269637;22;20011;-86
2022/11/23 00:18:19;;;;;;;49.33;23.40;;;5.40;99.90;;;;;;6269692;22;20004;-86
2022/11/23 00:20:44;;;;;;;50.67;24.83;;;5.30;99.90;;;;;;6243526;23;20012;-87
2022/11/23 00:23:10;;;;;;;49.97;24.48;;;5.30;99.90;;;;;;6269776;22;19988;-85
2022/11/23 00:25:36;;;;;;;48.63;24.23;;;5.40;99.90;;;;;;6269816;23;20003;-86
2022/11/23 00:28:02;;;;;;;49.60;23.17;;;5.40;99.90;;;;;;6265217;23;20023;-85
2022/11/23 00:30:28;;;;;;;51.58;23.83;;;5.40;99.90;;;;;;6260202;22;20012;-85
2022/11/23 00:32:55;;;;;;;53.47;25.10;;;5.40;99.90;;;;;;6234132;23;20009;-87
2022/11/23 00:35:22;;;;;;;57.50;26.27;;;5.40;99.90;;;;;;6235803;23;20034;-85
2022/11/23 00:37:48;;;;;;;54.95;24.88;;;5.40;99.90;;;;;;6237882;23;20012;-85
2022/11/23 00:40:14;;;;;;;57.50;25.95;;;5.40;99.90;;;;;;6265709;22;20034;-84
2022/11/23 00:42:40;;;;;;;54.50;26.65;;;5.40;99.90;;;;;;6215265;23;20000;-85
2022/11/23 00:45:06;;;;;;;52.22;25.15;;;5.40;99.90;;;;;;6245546;23;19996;-86
2022/11/23 00:47:32;;;;;;;55.47;26.63;;;5.40;99.90;;;;;;6272707;22;19996;-88
2022/11/23 00:49:58;;;;;;;53.70;26.05;;;5.40;99.90;;;;;;6272477;22;20052;-85
2022/11/23 00:52:24;;;;;;;54.80;26.20;;;5.40;99.90;;;;;;6273401;22;20004;-86
2022/11/23 00:54:50;;;;;;;49.72;25.10;;;5.40;99.90;;;;;;6273390;22;20016;-86
2022/11/23 00:57:16;;;;;;;53.63;26.70;;;5.40;99.90;;;;;;6247355;23;20011;-86
2022/11/23 00:59:43;;;;;;;58.28;26.98;;;5.40;99.90;;;;;;6244686;23;20004;-86
2022/11/23 01:02:09;;;;;;;55.65;27.50;;;5.40;99.90;;;;;;6269452;22;19992;-85
2022/11/23 01:04:38;;;;;;;58.08;27.90;;;5.40;99.90;;;;;;6247753;23;19999;-85
2022/11/23 01:07:03;;;;;;;54.42;26.10;;;5.40;99.90;;;;;;6271829;22;20004;-87
2022/11/23 01:09:30;;;;;;;53.85;26.02;;;5.40;99.90;;;;;;6239078;23;20024;-86
2022/11/23 01:11:56;;;;;;;55.28;26.05;;;5.40;99.90;;;;;;6237993;23;20030;-86
2022/11/23 01:14:23;;;;;;;55.67;26.08;;;5.40;99.90;;;;;;6238398;23;20095;-85
2022/11/23 01:16:49;;;;;;;54.72;27.10;;;5.40;99.90;;;;;;6234989;23;20007;-87
2022/11/23 01:19:19;;;;;;;56.67;27.02;;;5.40;99.90;;;;;;6238191;23;20004;-86
2022/11/23 01:21:48;;;;;;;51.80;24.73;;;5.40;99.90;;;;;;6240076;23;20292;-86
2022/11/23 01:24:18;;;;;;;54.33;26.00;;;5.40;99.90;;;;;;6241007;23;20018;-85
2022/11/23 01:26:44;;;;;;;54.83;25.45;;;5.40;99.90;;;;;;6243218;23;20023;-84
2022/11/23 01:29:10;;;;;;;55.67;26.73;;;5.40;99.90;;;;;;6217919;23;20083;-86
2022/11/23 01:31:38;;;;;;;52.72;24.67;;;5.40;99.90;;;;;;6271032;22;20055;-84
2022/11/23 01:34:06;;;;;;;55.83;26.52;;;5.40;99.90;;;;;;6247853;22;20075;-84
2022/11/23 01:36:34;;;;;;;51.75;24.98;;;5.40;99.90;;;;;;6222223;22;20004;-85
2022/11/23 01:39:01;;;;;;;51.22;24.70;;;5.40;99.90;;;;;;6246429;22;20008;-87
2022/11/23 01:41:36;;;;;;;49.35;24.30;;;5.40;99.90;;;;;;6221736;22;20024;-86
2022/11/23 01:44:32;;;;;;;49.90;23.90;;;5.50;99.90;;;;;;6247017;22;20000;-85
2022/11/23 01:46:59;;;;;;;;;;;5.50;99.90;;;;;;6267332;23;20015;-84
2022/11/23 01:49:28;;;;;;;54.65;25.05;;;5.50;99.90;;;;;;6214181;23;19904;-86
2022/11/23 01:51:58;;;;;;;52.55;23.95;;;5.50;99.90;;;;;;6264205;22;20012;-84
2022/11/23 01:54:31;;;;;;;48.30;23.75;;;5.50;99.90;;;;;;6236087;23;20004;-84
2022/11/23 01:57:01;;;;;;;45.75;22.25;;;5.50;99.90;;;;;;6214975;23;20012;-85
2022/11/23 01:59:29;;;;;;;48.50;24.00;;;5.50;99.90;;;;;;6247664;23;20019;-85
2022/11/23 02:01:55;;;;;;;50.70;23.67;;;5.50;99.90;;;;;;6273248;23;20004;-85
2022/11/23 02:04:31;;;;;;;52.17;24.30;;;5.50;99.90;;;;;;6273205;22;20015;-88
2022/11/23 02:06:59;;;;;;;47.70;23.10;;;5.50;99.90;;;;;;6273740;23;20012;-86
2022/11/23 02:09:31;;;;;;;46.92;22.60;;;5.50;99.90;;;;;;6248891;22;20019;-85
2022/11/23 02:11:57;;;;;;;44.60;22.73;;;5.50;99.90;;;;;;6247042;23;20008;-85
2022/11/23 02:14:24;;;;;;;44.30;21.92;;;5.50;99.90;;;;;;6208184;23;20062;-84
2022/11/23 02:16:54;;;;;;;41.63;20.83;;;5.60;99.90;;;;;;6205344;23;20011;-85
2022/11/23 02:19:46;;;;;;;46.80;20.90;;;5.60;99.90;;;;;;6229061;23;20011;-85
2022/11/23 02:22:24;;;;;;;42.03;20.20;;;5.60;99.90;;;;;;6240680;23;20462;-84
2022/11/23 02:24:52;;;;;;;40.40;20.40;;;5.50;99.90;;;;;;6254990;23;20008;-85
2022/11/23 02:27:19;;;;;;;44.42;21.27;;;5.50;99.90;;;;;;6254672;22;20004;-85
2022/11/23 02:29:46;;;;;;;40.08;20.10;;;5.50;99.90;;;;;;6255714;23;20007;-85
2022/11/23 02:32:22;;;;;;;42.67;20.08;;;5.50;99.90;;;;;;6255465;22;20415;-85
2022/11/23 02:34:49;;;;;;;38.53;19.08;;;5.50;99.90;;;;;;6253989;23;20024;-86
2022/11/23 02:37:15;;;;;;;39.00;18.60;;;5.60;99.90;;;;;;6255545;23;20072;-85
2022/11/23 02:39:48;;;;;;;39.08;18.42;;;5.60;99.90;;;;;;6261412;23;20004;-84
2022/11/23 02:42:14;;;;;;;38.58;19.13;;;5.60;99.90;;;;;;6264823;23;20048;-84
2022/11/23 02:44:47;;;;;;;37.67;18.75;;;5.60;99.90;;;;;;6242058;23;20039;-86
2022/11/23 02:47:13;;;;;;;37.83;17.95;;;5.60;99.90;;;;;;6246330;23;20034;-84
2022/11/23 02:49:46;;;;;;;44.78;18.63;;;5.50;99.90;;;;;;6246238;23;20020;-84
2022/11/23 02:52:12;;;;;;;40.63;18.67;;;5.60;99.90;;;;;;6271828;23;20038;-84
2022/11/23 02:54:38;;;;;;;33.58;16.45;;;5.60;99.90;;;;;;6239576;23;20533;-84
2022/11/23 02:57:05;;;;;;;39.40;18.83;;;5.60;99.90;;;;;;6266182;23;20008;-85
2022/11/23 02:59:32;;;;;;;35.55;17.42;;;5.60;99.90;;;;;;6238625;23;20020;-86
2022/11/23 03:02:03;;;;;;;33.55;17.60;;;5.50;99.90;;;;;;6237045;23;20027;-86
2022/11/23 03:04:30;;;;;;;39.60;18.63;;;5.50;99.90;;;;;;6230374;23;20015;-85
2022/11/23 03:06:57;;;;;;;41.65;19.40;;;5.50;99.90;;;;;;6257675;23;19998;-86
2022/11/23 03:09:25;;;;;;;40.90;19.17;;;5.50;99.90;;;;;;6221859;23;20038;-85
2022/11/23 03:11:51;;;;;;;39.05;18.55;;;5.50;99.90;;;;;;6247608;23;20012;-85
2022/11/23 03:14:17;;;;;;;37.20;18.52;;;5.50;99.90;;;;;;6247964;22;20004;-85
2022/11/23 03:16:49;;;;;;;35.72;17.23;;;5.40;99.90;;;;;;6248157;23;19988;-84
2022/11/23 03:19:17;;;;;;;40.88;18.58;;;5.40;99.90;;;;;;6247926;23;20022;-84
2022/11/23 03:21:43;;;;;;;38.65;17.73;;;5.50;99.90;;;;;;6247427;23;20020;-85
2022/11/23 03:24:08;;;;;;;36.72;18.05;;;5.50;99.90;;;;;;6246353;23;20059;-85
2022/11/23 03:26:35;;;;;;;35.83;17.25;;;5.40;99.90;;;;;;6217639;23;20453;-83
2022/11/23 03:29:09;;;;;;;37.78;18.00;;;5.40;99.90;;;;;;6223659;23;20004;-85
2022/11/23 03:31:37;;;;;;;38.50;17.75;;;5.40;99.90;;;;;;6248163;23;20000;-85
2022/11/23 03:34:07;;;;;;;35.20;16.38;;;5.40;99.90;;;;;;6247875;23;19999;-84
2022/11/23 03:36:34;;;;;;;34.00;17.48;;;5.40;99.90;;;;;;6245765;23;20007;-85
2022/11/23 03:39:00;;;;;;;36.05;17.02;;;5.40;99.90;;;;;;6245290;23;20063;-84
2022/11/23 03:41:46;;;;;;;31.45;16.77;;;5.40;99.90;;;;;;6249798;23;20016;-85
2022/11/23 03:44:12;;;;;;;34.17;16.00;;;5.40;99.90;;;;;;6248465;22;20004;-86
2022/11/23 03:46:37;;;;;;;33.50;17.13;;;5.40;99.90;;;;;;6248755;22;19996;-85
2022/11/23 03:49:03;;;;;;;30.70;15.88;;;5.30;99.90;;;;;;6248341;22;20031;-85
2022/11/23 03:51:29;;;;;;;36.78;16.75;;;5.40;99.90;;;;;;6248468;22;20232;-85
2022/11/23 03:53:55;;;;;;;35.80;16.65;;;5.40;99.90;;;;;;6223040;23;20008;-85
2022/11/23 03:56:21;;;;;;;36.90;18.38;;;5.40;99.90;;;;;;6222961;22;19996;-85
2022/11/23 03:58:47;;;;;;;35.45;17.95;;;5.40;99.90;;;;;;6273946;22;20003;-85
2022/11/23 04:01:13;;;;;;;36.03;16.38;;;5.40;99.90;;;;;;6222541;23;20496;-86
2022/11/23 04:03:41;;;;;;;38.00;17.77;;;5.40;99.90;;;;;;6247773;22;19996;-85
2022/11/23 04:06:07;;;;;;;34.50;16.92;;;5.50;99.90;;;;;;6248033;22;19996;-85
2022/11/23 04:08:56;;;;;;;39.33;17.75;;;5.50;99.90;;;;;;6248106;22;20012;-86
2022/11/23 04:11:40;;;;;;;40.97;18.25;;;5.50;99.90;;;;;;6274403;22;20060;-85
2022/11/23 04:14:07;;;;;;;44.13;19.40;;;5.50;99.90;;;;;;6248076;22;20008;-85
2022/11/23 04:16:33;;;;;;;43.45;18.35;;;5.50;99.90;;;;;;6247404;23;20056;-86
2022/11/23 04:19:00;;;;;;;42.75;21.33;;;5.50;99.90;;;;;;6247464;22;20027;-86
2022/11/23 04:21:26;;;;;;;46.33;19.17;;;5.50;99.90;;;;;;6247354;22;20039;-85
2022/11/23 04:23:52;;;;;;;45.75;19.92;;;5.50;99.90;;;;;;6247011;22;19993;-84
2022/11/23 04:26:18;;;;;;;47.35;21.05;;;5.50;99.90;;;;;;6243858;23;20059;-83
2022/11/23 04:28:46;;;;;;;46.65;19.95;;;5.50;99.90;;;;;;6247412;22;20007;-84
2022/11/23 04:31:12;;;;;;;44.38;20.45;;;5.50;99.90;;;;;;6242914;23;20460;-85
2022/11/23 04:34:01;;;;;;;47.17;19.95;;;5.50;99.90;;;;;;6250942;22;20008;-84
2022/11/23 04:36:27;;;;;;;49.67;21.63;;;5.50;99.90;;;;;;6212823;23;20067;-86
2022/11/23 04:38:53;;;;;;;48.72;21.95;;;5.50;99.90;;;;;;6239394;23;20011;-83
2022/11/23 04:41:27;;;;;;;49.47;21.50;;;5.40;99.90;;;;;;6236894;23;20099;-86
2022/11/23 04:43:53;;;;;;;52.60;22.77;;;5.40;99.90;;;;;;6231424;23;20242;-86
2022/11/23 04:46:19;;;;;;;55.83;23.88;;;5.40;99.90;;;;;;6229590;23;20001;-87
2022/11/23 04:48:45;;;;;;;49.88;21.92;;;5.40;99.90;;;;;;6254911;23;20008;-85
2022/11/23 04:51:15;;;;;;;53.40;23.48;;;5.40;99.90;;;;;;6204931;23;20015;-83
2022/11/23 04:53:41;;;;;;;51.95;22.27;;;5.40;99.90;;;;;;6203271;23;20018;-86
2022/11/23 04:56:07;;;;;;;52.65;23.85;;;5.40;99.90;;;;;;6228905;23;20026;-84
2022/11/23 04:58:37;;;;;;;45.22;22.33;;;5.40;99.90;;;;;;6204859;23;20008;-85
2022/11/23 05:01:03;;;;;;;45.78;21.30;;;5.40;99.90;;;;;;6227861;23;20012;-85
2022/11/23 05:03:33;;;;;;;48.30;21.85;;;5.40;99.90;;;;;;6203907;23;20031;-85
2022/11/23 05:06:03;;;;;;;46.13;21.33;;;5.40;99.90;;;;;;6231271;23;20000;-85
2022/11/23 05:08:36;;;;;;;49.70;22.42;;;5.40;99.90;;;;;;6247660;22;20020;-86
2022/11/23 05:11:35;;;;;;;42.38;19.13;;;5.40;99.90;;;;;;6246076;22;20038;-85
2022/11/23 05:14:01;;;;;;;42.50;19.42;;;5.40;99.90;;;;;;6207686;23;20023;-85
2022/11/23 05:16:29;;;;;;;43.80;20.52;;;5.40;99.90;;;;;;6229685;23;20000;-85
2022/11/23 05:18:54;;;;;;;38.10;18.25;;;5.40;99.90;;;;;;6204638;23;20008;-84
2022/11/23 05:21:21;;;;;;;43.35;18.08;;;5.40;99.90;;;;;;6228361;23;20008;-85
2022/11/23 05:23:47;;;;;;;42.15;19.00;;;5.40;99.90;;;;;;6260431;23;20027;-85
2022/11/23 05:26:13;;;;;;;39.47;18.50;;;5.40;99.90;;;;;;6234708;23;19996;-84
2022/11/23 05:28:40;;;;;;;48.17;20.80;;;5.40;99.90;;;;;;6259184;23;20053;-84
2022/11/23 05:31:07;;;;;;;40.35;20.52;;;5.40;99.90;;;;;;6228637;23;20012;-85
2022/11/23 05:33:33;;;;;;;36.30;17.80;;;5.40;99.90;;;;;;6204195;23;20067;-84
2022/11/23 05:36:00;;;;;;;39.83;19.75;;;5.40;99.90;;;;;;6234839;22;20015;-80
2022/11/23 05:38:34;;;;;;;36.23;17.87;;;5.40;99.90;;;;;;6239916;22;20022;-81
2022/11/23 05:41:05;;;;;;;36.40;17.55;;;5.40;99.90;;;;;;6233708;23;20012;-81
2022/11/23 05:43:31;;;;;;;46.42;18.73;;;5.30;99.90;;;;;;6234077;23;20334;-82
2022/11/23 05:45:59;;;;;;;39.72;19.20;;;5.30;99.90;;;;;;6232022;23;20000;-82
2022/11/23 05:48:25;;;;;;;43.28;19.77;;;5.30;99.90;;;;;;6232072;23;20039;-82
2022/11/23 05:50:57;;;;;;;44.40;20.75;;;5.40;99.90;;;;;;6230919;23;20001;-82
2022/11/23 05:53:26;;;;;;;42.15;19.80;;;5.40;99.90;;;;;;6233144;23;20026;-82
2022/11/23 05:56:02;;;;;;;48.35;20.73;;;5.40;99.90;;;;;;6234863;23;19996;-82
2022/11/23 05:58:34;;;;;;;41.30;20.23;;;5.40;99.90;;;;;;6236066;23;20005;-84
2022/11/23 06:01:00;;;;;;;41.38;18.98;;;5.40;99.90;;;;;;6217794;23;19996;-82
2022/11/23 06:03:30;;;;;;;42.20;19.35;;;5.30;99.90;;;;;;6220972;23;19996;-81
2022/11/23 06:05:56;;;;;;;42.10;18.95;;;5.30;99.90;;;;;;6244275;23;20015;-82
2022/11/23 06:08:29;;;;;;;45.90;19.83;;;5.30;99.90;;;;;;6244434;23;20462;-81
2022/11/23 06:10:54;;;;;;;39.58;17.98;;;5.30;99.90;;;;;;6239274;23;20023;-82
2022/11/23 06:13:21;;;;;;;38.53;18.98;;;5.30;99.90;;;;;;6237484;23;20004;-81
2022/11/23 06:15:47;;;;;;;43.10;17.98;;;5.30;99.90;;;;;;6261154;23;20067;-81
2022/11/23 06:18:19;;;;;;;40.90;20.27;;;5.30;99.90;;;;;;6233268;23;20010;-84
2022/11/23 06:20:48;;;;;;;38.25;19.25;;;5.20;99.90;;;;;;6231701;23;20091;-83
2022/11/23 06:23:14;;;;;;;41.17;19.23;;;5.20;99.90;;;;;;6259933;23;20043;-83
2022/11/23 06:25:40;;;;;;;40.42;19.75;;;5.20;99.90;;;;;;6231370;23;20061;-83
2022/11/23 06:28:20;;;;;;;38.75;18.30;;;5.20;99.90;;;;;;6210789;23;20020;-85
2022/11/23 06:30:47;;;;;;;41.85;19.83;;;5.20;99.90;;;;;;6235015;23;20008;-84
2022/11/23 06:33:13;;;;;;;46.72;20.35;;;5.20;99.90;;;;;;6209651;23;20008;-83
2022/11/23 06:35:56;;;;;;;38.78;19.13;;;5.20;99.90;;;;;;6229341;23;20012;-82
2022/11/23 06:38:25;;;;;;;41.22;18.67;;;5.20;99.90;;;;;;6205259;23;20004;-81
2022/11/23 06:40:59;;;;;;;42.53;19.57;;;5.30;99.90;;;;;;6230669;23;20111;-84
2022/11/23 06:43:26;;;;;;;46.03;19.98;;;5.30;99.90;;;;;;6235715;23;20071;-83
2022/11/23 06:45:55;;;;;;;40.47;19.05;;;5.30;99.90;;;;;;6243996;23;19997;-82
2022/11/23 06:48:26;;;;;;;41.17;19.10;;;5.30;99.90;;;;;;6245817;22;19992;-82
2022/11/23 06:50:52;;;;;;;47.25;19.75;;;5.30;99.90;;;;;;6247228;22;20008;-83
2022/11/23 06:53:20;;;;;;;43.75;19.45;;;5.40;99.90;;;;;;6222545;23;20004;-81
2022/11/23 06:55:50;;;;;;;42.17;19.55;;;5.40;99.90;;;;;;6247674;23;20000;-82
2022/11/23 06:58:18;;;;;;;46.92;20.27;;;5.50;99.90;;;;;;6222855;23;20008;-81
2022/11/23 07:00:44;;;;;;;48.00;20.88;;;5.50;99.90;;;;;;6266725;22;20008;-82
2022/11/23 07:03:30;;;;;;;45.92;20.05;;;5.60;99.90;;;;;;6237709;23;20346;-82
2022/11/23 07:06:08;;;;;;;45.22;19.90;;;5.60;99.90;;;;;;6236021;23;20016;-82
2022/11/23 07:08:38;;;;;;;37.22;17.67;;;5.60;99.90;;;;;;6235995;23;19994;-82
2022/11/23 07:11:19;;;;;;;37.93;18.17;;;5.60;99.90;;;;;;6235411;23;20549;-82
2022/11/23 07:13:45;;;;;;;41.50;16.77;;;5.60;99.90;;;;;;6234828;23;20087;-82
2022/11/23 07:16:11;;;;;;;38.33;17.20;;;5.50;99.90;;;;;;6235984;23;20466;-83
2022/11/23 07:18:37;;;;;;;32.45;15.88;;;5.50;99.90;;;;;;6236346;23;20015;-82
2022/11/23 07:21:03;;;;;;;34.38;15.68;;;5.50;99.90;;;;;;6265104;23;20004;-82
2022/11/23 07:23:29;;;;;;;36.60;14.98;;;5.50;99.90;;;;;;6238514;23;20011;-84
2022/11/23 07:25:55;;;;;;;32.67;14.88;;;5.50;99.90;;;;;;6262512;23;20023;-82
2022/11/23 07:28:21;;;;;;;29.23;14.00;;;5.50;99.90;;;;;;6260701;23;20103;-81
2022/11/23 07:30:49;;;;;;;25.25;12.43;;;5.50;99.90;;;;;;6234617;23;20005;-83
2022/11/23 07:33:16;;;;;;;29.45;13.07;;;5.50;99.90;;;;;;6233288;23;20478;-82
2022/11/23 07:35:44;;;;;;;28.02;13.27;;;5.50;99.90;;;;;;6233535;23;20016;-83
2022/11/23 07:38:09;;;;;;;23.00;10.68;;;5.60;99.90;;;;;;6235352;23;20019;-82
2022/11/23 07:40:37;;;;;;;23.90;11.05;;;5.50;99.90;;;;;;6262272;23;20064;-81
2022/11/23 07:43:04;;;;;;;25.38;11.48;;;5.60;99.90;;;;;;6266220;23;20004;-82
2022/11/23 07:45:31;;;;;;;19.05;8.68;;;5.60;99.90;;;;;;6265881;23;19996;-81
2022/11/23 07:48:05;;;;;;;16.38;8.48;;;5.60;99.90;;;;;;6239445;23;20023;-82
2022/11/23 07:50:31;;;;;;;16.85;8.43;;;5.60;99.90;;;;;;6238966;23;20004;-81
2022/11/23 07:52:57;;;;;;;17.08;8.05;;;5.70;99.90;;;;;;6264144;23;20038;-81
2022/11/23 07:55:23;;;;;;;17.73;8.55;;;5.70;99.90;;;;;;6265561;23;20016;-82
2022/11/23 07:57:53;;;;;;;18.38;8.57;;;5.70;99.90;;;;;;6262597;23;20004;-81
2022/11/23 08:00:20;;;;;;;18.40;8.18;;;5.70;99.90;;;;;;6262301;23;20000;-82
2022/11/23 08:02:46;;;;;;;14.80;7.15;;;5.70;99.90;;;;;;6262897;23;19996;-81
2022/11/23 08:05:12;;;;;;;17.83;8.57;;;5.70;99.90;;;;;;6262553;23;20066;-81
2022/11/23 08:07:38;;;;;;;14.63;7.65;;;5.70;99.90;;;;;;6261244;23;19999;-81
2022/11/23 08:10:04;;;;;;;16.90;7.95;;;5.70;99.90;;;;;;6262299;23;20012;-81
2022/11/23 08:12:30;;;;;;;15.25;7.68;;;5.70;99.90;;;;;;6262472;23;19996;-81
2022/11/23 08:14:55;;;;;;;11.98;7.03;;;5.70;99.90;;;;;;6235825;23;20004;-81
2022/11/23 08:17:21;;;;;;;14.43;7.13;;;5.80;99.90;;;;;;6262169;23;20008;-81
2022/11/23 08:19:47;;;;;;;14.35;7.28;;;5.80;99.90;;;;;;6261532;23;20086;-80
2022/11/23 08:22:13;;;;;;;10.98;5.93;;;5.80;99.90;;;;;;6262093;23;20020;-80
2022/11/23 08:24:39;;;;;;;15.55;7.85;;;5.90;99.90;;;;;;6262080;23;20006;-81
2022/11/23 08:27:04;;;;;;;12.77;6.88;;;5.90;99.90;;;;;;6261401;23;20012;-81
2022/11/23 08:29:30;;;;;;;12.43;6.65;;;5.90;99.90;;;;;;6263044;23;20315;-81
2022/11/23 08:31:56;;;;;;;16.27;7.22;;;5.90;99.90;;;;;;6211699;23;20004;-81
2022/11/23 08:34:22;;;;;;;13.25;6.88;;;6.00;99.90;;;;;;6236704;23;20008;-81
2022/11/23 08:36:48;;;;;;;11.65;6.50;;;6.00;99.90;;;;;;6237670;23;20016;-79
2022/11/23 08:39:14;;;;;;;12.38;6.32;;;6.00;99.90;;;;;;6237134;23;20011;-81
2022/11/23 08:41:42;;;;;;;12.52;6.70;;;6.10;99.90;;;;;;6236875;23;20024;-80
2022/11/23 08:44:10;;;;;;;13.35;6.65;;;6.10;99.90;;;;;;6262900;23;20122;-81
2022/11/23 08:46:36;;;;;;;11.68;6.85;;;6.10;99.90;;;;;;6262264;23;20069;-81
2022/11/23 08:49:03;;;;;;;11.52;6.60;;;6.10;99.90;;;;;;6265190;23;20004;-80
2022/11/23 08:51:29;;;;;;;13.25;7.18;;;6.10;99.90;;;;;;6238312;23;20004;-79
2022/11/23 08:53:55;;;;;;;13.55;6.25;;;6.10;99.90;;;;;;6265853;23;20004;-80
2022/11/23 08:56:20;;;;;;;12.88;6.47;;;6.10;99.90;;;;;;6240502;23;20107;-82
2022/11/23 08:58:46;;;;;;;13.70;6.75;;;6.00;99.90;;;;;;6240390;23;20028;-80
2022/11/23 09:01:14;;;;;;;14.30;6.85;;;6.00;99.90;;;;;;6262830;23;20015;-82
2022/11/23 09:03:41;;;;;;;14.20;7.00;;;5.90;99.90;;;;;;6262241;23;20000;-81
2022/11/23 09:06:07;;;;;;;13.35;7.03;;;5.90;99.90;;;;;;6237560;23;20000;-79
2022/11/23 09:08:34;;;;;;;16.25;7.35;;;6.00;99.90;;;;;;6266368;23;20008;-80
2022/11/23 09:11:01;;;;;;;14.00;7.10;;;6.00;99.90;;;;;;6237589;23;20107;-81
2022/11/23 09:13:28;;;;;;;12.02;6.60;;;6.00;99.90;;;;;;6263535;23;20008;-81
2022/11/23 09:15:58;;;;;;;12.07;6.40;;;6.10;99.90;;;;;;6263684;23;20082;-80
2022/11/23 09:18:25;;;;;;;13.43;6.60;;;6.10;99.90;;;;;;6261921;23;20008;-81
2022/11/23 09:20:51;;;;;;;11.65;5.90;;;6.10;99.90;;;;;;6262122;23;20008;-81
2022/11/23 09:23:17;;;;;;;11.32;6.18;;;6.20;99.90;;;;;;6266668;23;20004;-80
2022/11/23 09:25:46;;;;;;;14.32;6.03;;;6.20;99.90;;;;;;6239953;23;20004;-81
2022/11/23 09:28:13;;;;;;;12.77;6.15;;;6.30;99.90;;;;;;6241059;23;20026;-81
2022/11/23 09:30:40;;;;;;;13.02;6.03;;;6.20;99.90;;;;;;6266713;23;20000;-81
2022/11/23 09:33:07;;;;;;;13.93;6.50;;;6.20;99.90;;;;;;6268381;23;20004;-81
2022/11/23 09:35:33;;;;;;;11.82;5.68;;;6.20;99.90;;;;;;6265795;23;20019;-82
2022/11/23 09:38:00;;;;;;;12.82;6.28;;;6.20;99.90;;;;;;6239484;23;20000;-82
2022/11/23 09:40:31;;;;;;;11.70;6.60;;;6.20;99.90;;;;;;6264328;23;20079;-82
2022/11/23 09:43:49;;;;;;;12.10;6.18;;;6.20;99.90;;;;;;6237889;23;20018;-82
2022/11/23 09:46:40;;;;;;;13.90;5.65;;;6.30;99.90;;;;;;6153812;23;20018;-81
2022/11/23 09:49:14;;;;;;;13.30;6.13;;;6.30;99.90;;;;;;6242977;23;20002;-81
2022/11/23 09:51:41;;;;;;;13.15;5.72;;;6.40;99.90;;;;;;6264581;23;20008;-83
2022/11/23 09:54:29;;;;;;;11.65;5.70;;;6.30;99.90;;;;;;6262061;23;20011;-82
2022/11/23 09:56:57;;;;;;;12.80;5.85;;;6.30;99.90;;;;;;6262588;23;20054;-81
2022/11/23 09:59:32;;;;;;;10.50;5.28;;;6.20;99.90;;;;;;6263760;23;20082;-81
2022/11/23 10:02:00;;;;;;;11.40;5.60;;;6.30;99.90;;;;;;6262648;23;20140;-82
2022/11/23 10:04:31;;;;;;;11.48;5.80;;;6.30;99.90;;;;;;6262860;23;20020;-82
2022/11/23 10:07:16;;;;;;;9.95;5.40;;;6.40;99.90;;;;;;6235361;23;20016;-82
2022/11/23 10:09:57;;;;;;;10.52;5.15;;;6.60;99.90;;;;;;6235318;23;20030;-82
2022/11/23 10:12:44;;;;;;;9.32;5.40;;;6.60;99.90;;;;;;6262334;23;20004;-81
2022/11/23 10:15:19;;;;;;;9.90;4.85;;;6.80;99.90;;;;;;6263202;23;20056;-82
2022/11/23 10:18:10;;;;;;;8.68;4.75;;;6.90;99.90;;;;;;6264581;23;20051;-83
2022/11/23 10:21:32;;;;;;;9.27;4.88;;;7.00;99.90;;;;;;6264320;23;20008;-82
2022/11/23 10:24:07;;;;;;;7.15;4.55;;;7.00;99.90;;;;;;6115824;23;20076;-81
2022/11/23 10:26:38;;;;;;;11.73;5.35;;;7.00;99.90;;;;;;6117084;23;20038;-83
2022/11/23 10:29:30;;;;;;;11.32;4.88;;;7.30;99.90;;;;;;6195317;23;20323;-82
2022/11/23 10:31:57;;;;;;;7.78;4.47;;;7.70;99.90;;;;;;6235425;23;20008;-83
2022/11/23 10:34:34;;;;;;;11.02;4.40;;;8.30;99.90;;;;;;6235663;23;20004;-81
2022/11/23 10:37:00;;;;;;;6.93;4.15;;;9.10;99.90;;;;;;6260782;23;20614;-84
2022/11/23 10:39:27;;;;;;;6.00;3.55;;;9.70;99.90;;;;;;6260666;23;20051;-83
2022/11/23 10:41:57;;;;;;;7.32;3.58;;;9.80;99.90;;;;;;6261582;23;20049;-82
2022/11/23 10:44:45;;;;;;;9.32;3.60;;;9.50;99.90;;;;;;6262120;23;20023;-83
2022/11/23 10:47:10;;;;;;;6.95;3.50;;;9.20;99.90;;;;;;6261568;23;20000;-81
2022/11/23 10:49:36;;;;;;;4.80;2.80;;;8.90;99.90;;;;;;6235434;23;20501;-82
2022/11/23 10:52:29;;;;;;;5.28;3.33;;;8.70;99.90;;;;;;6233886;23;20059;-80
2022/11/23 10:54:58;;;;;;;6.88;2.85;;;8.50;99.90;;;;;;6261584;23;20015;-82
2022/11/23 10:57:27;;;;;;;6.35;2.95;;;8.30;99.90;;;;;;6262209;23;20469;-81
2022/11/23 11:00:08;;;;;;;5.30;3.20;;;8.30;99.90;;;;;;6262199;23;20067;-81
2022/11/23 11:02:43;;;;;;;8.98;2.75;;;8.20;99.90;;;;;;6264756;23;20024;-81
2022/11/23 11:05:26;;;;;;;8.10;3.45;;;8.10;99.90;;;;;;6236563;23;20055;-81
2022/11/23 11:07:53;;;;;;;7.22;3.75;;;8.00;99.90;;;;;;6235726;23;20010;-83
2022/11/23 11:10:31;;;;;;;6.43;3.55;;;8.00;99.90;;;;;;6235980;23;20018;-81
2022/11/23 11:12:57;;;;;;;4.53;2.83;;;8.00;99.90;;;;;;6260776;23;20004;-82
2022/11/23 11:15:23;;;;;;;5.28;2.65;;;7.90;99.90;;;;;;6262058;23;20030;-83
2022/11/23 11:17:58;;;;;;;4.47;2.88;;;7.80;99.90;;;;;;6261469;23;20004;-81
2022/11/23 11:20:27;;;;;;;5.03;2.63;;;7.70;99.90;;;;;;6260487;23;20091;-83
2022/11/23 11:22:54;;;;;;;4.28;2.63;;;7.60;99.90;;;;;;6260175;23;20047;-83
2022/11/23 11:25:37;;;;;;;4.97;2.53;;;7.60;99.90;;;;;;6261189;23;20005;-82
2022/11/23 11:28:17;;;;;;;8.23;3.38;;;7.70;99.90;;;;;;6262304;23;20031;-83
2022/11/23 11:30:53;;;;;;;7.47;2.78;;;7.60;99.90;;;;;;6267799;23;20011;-82
2022/11/23 11:33:28;;;;;;;7.50;2.65;;;7.70;99.90;;;;;;6266910;23;20012;-83
2022/11/23 11:35:55;;;;;;;8.65;3.25;;;7.70;99.90;;;;;;6260073;23;20016;-83
2022/11/23 11:38:32;;;;;;;7.47;3.08;;;7.70;99.90;;;;;;6254498;23;20486;-81
2022/11/23 11:41:09;;;;;;;6.50;3.50;;;7.80;99.90;;;;;;6252887;23;20324;-82
2022/11/23 11:43:41;;;;;;;5.05;2.72;;;7.80;99.90;;;;;;6201393;23;20064;-82
2022/11/23 11:46:15;;;;;;;11.30;3.03;;;7.70;99.90;;;;;;6254146;23;20000;-82
2022/11/23 11:49:17;;;;;;;9.10;3.05;;;7.70;99.90;;;;;;6258719;22;19996;-78
2022/11/23 11:52:04;;;;;;;5.50;3.00;;;7.80;99.90;;;;;;6247156;22;20027;-80
2022/11/23 11:54:48;;;;;;;6.50;3.15;;;7.90;99.90;;;;;;6245955;22;20043;-79
2022/11/23 11:57:22;;;;;;;7.83;3.10;;;8.00;99.90;;;;;;6244988;23;20064;-79
2022/11/23 11:59:52;;;;;;;8.67;3.10;;;8.00;99.90;;;;;;6260837;23;20551;-81
2022/11/23 12:02:45;;;;;;;6.35;3.00;;;8.00;99.90;;;;;;6227053;23;20231;-82
2022/11/23 12:05:20;;;;;;;6.03;2.63;;;8.00;99.90;;;;;;6253640;23;20339;-81
2022/11/23 12:08:20;;;;;;;5.30;2.60;;;8.00;99.90;;;;;;6261550;23;20464;-81
2022/11/23 12:10:58;;;;;;;6.45;2.78;;;7.90;99.90;;;;;;6229087;23;20084;-82
2022/11/23 12:13:32;;;;;;;6.30;2.72;;;7.70;99.90;;;;;;6253745;23;20012;-82
2022/11/23 12:16:22;;;;;;;7.75;2.88;;;7.60;99.90;;;;;;6232002;23;20023;-79
2022/11/23 12:19:23;;;;;;;8.82;2.72;;;7.50;99.90;;;;;;6271494;22;19999;-78
2022/11/23 12:22:01;;;;;;;5.35;2.83;;;7.40;99.90;;;;;;6271002;22;20004;-79
2022/11/23 12:25:01;;;;;;;4.45;2.47;;;7.40;99.90;;;;;;6244342;23;20012;-78
2022/11/23 12:27:27;;;;;;;6.63;3.08;;;7.20;99.90;;;;;;6259282;23;20024;-80
2022/11/23 12:30:24;;;;;;;5.93;3.05;;;7.10;99.90;;;;;;6257009;23;20073;-79
2022/11/23 12:33:25;;;;;;;5.50;2.72;;;7.10;99.90;;;;;;6258408;23;20083;-79
2022/11/23 12:36:08;;;;;;;6.90;3.20;;;7.10;99.90;;;;;;6235956;23;20406;-80
2022/11/23 12:38:54;;;;;;;5.57;3.17;;;7.00;99.90;;;;;;6230406;23;20433;-80
2022/11/23 12:41:48;;;;;;;5.90;3.28;;;7.10;99.90;;;;;;6255668;23;20411;-80
2022/11/23 12:44:34;;;;;;;5.30;2.80;;;7.10;99.90;;;;;;6260866;23;20008;-80
2022/11/23 12:47:13;;;;;;;6.63;3.03;;;7.00;99.90;;;;;;6254388;23;20015;-80
2022/11/23 12:49:53;;;;;;;5.53;3.47;;;7.00;99.90;;;;;;6254946;23;20012;-79
2022/11/23 12:52:38;;;;;;;10.95;3.60;;;7.00;99.90;;;;;;6252923;23;20007;-81
2022/11/23 12:55:29;;;;;;;4.95;3.30;;;7.00;99.90;;;;;;6258563;23;20009;-81
2022/11/23 12:58:01;;;;;;;4.53;2.88;;;7.00;99.90;;;;;;6240635;23;20012;-80
2022/11/23 13:00:40;;;;;;;12.55;3.30;;;6.90;99.90;;;;;;6227290;23;20014;-81
2022/11/23 13:03:31;;;;;;;5.55;2.80;;;6.90;99.90;;;;;;6226842;23;20004;-82